Time;durP1;ratioP1;P1;durP2;ratioP2;P2;SDS_P1;SDS_P2;PMS_P1;PMS_P2;Temp;Humidity;BMP_temperature;BMP_pressure;BME280_temperature;BME280_humidity;BME280_pressure;Samples;Min_cycle;Max_cycle;Signal;HPM_P1;HPM_P2
2022/04/02 00:01:40;;;;;;;8.00;2.85;;;1.10;99.90;;;;;;4997974;28;20033;-81
2022/04/02 00:04:07;;;;;;;9.27;2.80;;;0.80;99.90;;;;;;5007739;28;20151;-82
2022/04/02 00:06:34;;;;;;;7.80;2.60;;;0.80;99.90;;;;;;5005405;28;20073;-83
2022/04/02 00:09:00;;;;;;;8.18;2.65;;;0.80;99.90;;;;;;4981621;28;20055;-82
2022/04/02 00:11:26;;;;;;;8.63;2.60;;;0.90;99.90;;;;;;5011534;28;20284;-82
2022/04/02 00:13:52;;;;;;;7.82;2.70;;;0.90;99.90;;;;;;5017854;28;20320;-81
2022/04/02 00:16:17;;;;;;;7.35;2.67;;;1.20;99.90;;;;;;5026006;28;20592;-81
2022/04/02 00:18:43;;;;;;;8.02;2.72;;;0.90;99.90;;;;;;4998282;28;20072;-82
2022/04/02 00:21:09;;;;;;;7.65;2.58;;;0.80;99.90;;;;;;5009619;28;20052;-82
2022/04/02 00:23:44;;;;;;;6.95;2.53;;;1.60;99.90;;;;;;4984820;28;20036;-81
2022/04/02 00:26:20;;;;;;;8.52;2.83;;;0.80;99.90;;;;;;4988226;28;20398;-81
2022/04/02 00:28:48;;;;;;;8.95;3.13;;;0.80;99.90;;;;;;5003820;28;20045;-81
2022/04/02 00:31:14;;;;;;;8.38;2.78;;;1.10;99.90;;;;;;4989380;28;20091;-81
2022/04/02 00:33:43;;;;;;;8.38;2.90;;;2.60;99.90;;;;;;5010235;28;20453;-82
2022/04/02 00:36:09;;;;;;;8.07;2.78;;;0.80;99.90;;;;;;5019178;28;20096;-82
2022/04/02 00:38:34;;;;;;;9.27;2.78;;;0.80;99.90;;;;;;5005479;28;20135;-82
2022/04/02 00:41:00;;;;;;;7.80;2.88;;;0.80;99.90;;;;;;5021771;28;20201;-82
2022/04/02 00:43:36;;;;;;;7.82;2.90;;;0.80;99.90;;;;;;5001197;28;20065;-82
2022/04/02 00:46:05;;;;;;;8.85;2.70;;;0.80;99.90;;;;;;5017146;28;20037;-82
2022/04/02 00:48:31;;;;;;;8.05;2.85;;;0.80;99.90;;;;;;5023750;28;20458;-82
2022/04/02 00:51:00;;;;;;;10.18;2.70;;;0.80;99.90;;;;;;4994275;28;20033;-82
2022/04/02 00:53:34;;;;;;;8.65;2.90;;;0.80;99.90;;;;;;5009253;28;20029;-82
2022/04/02 00:55:59;;;;;;;8.15;2.63;;;0.80;99.90;;;;;;5026359;28;20048;-82
2022/04/02 00:58:25;;;;;;;7.40;2.53;;;0.80;99.90;;;;;;5016543;28;20041;-82
2022/04/02 01:00:51;;;;;;;9.52;3.40;;;0.80;99.90;;;;;;4999061;28;20113;-81
2022/04/02 01:03:18;;;;;;;9.68;3.20;;;0.80;99.90;;;;;;5002275;28;20490;-82
2022/04/02 01:05:44;;;;;;;9.30;3.10;;;1.70;99.90;;;;;;5027959;28;20403;-81
2022/04/02 01:08:10;;;;;;;9.60;2.83;;;0.90;99.90;;;;;;5025203;28;20033;-82
2022/04/02 01:10:41;;;;;;;8.43;2.80;;;0.90;99.90;;;;;;5011946;28;20272;-82
2022/04/02 01:13:08;;;;;;;9.68;3.30;;;0.90;99.90;;;;;;5026123;28;20045;-82
2022/04/02 01:15:34;;;;;;;9.27;2.92;;;1.50;99.90;;;;;;5018985;28;20091;-82
2022/04/02 01:18:00;;;;;;;7.93;2.80;;;1.70;99.90;;;;;;5016471;28;20045;-82
2022/04/02 01:20:29;;;;;;;9.48;3.00;;;0.90;99.90;;;;;;4998076;28;20411;-82
2022/04/02 01:22:56;;;;;;;8.32;3.08;;;0.80;99.90;;;;;;5016730;28;20119;-82
2022/04/02 01:25:22;;;;;;;9.52;3.05;;;1.80;99.90;;;;;;5012974;28;20038;-82
2022/04/02 01:27:49;;;;;;;9.68;2.70;;;0.80;99.90;;;;;;5005243;28;20038;-82
2022/04/02 01:30:15;;;;;;;7.15;2.50;;;0.80;99.90;;;;;;5015084;28;20045;-82
2022/04/02 01:32:42;;;;;;;10.18;2.85;;;1.40;99.90;;;;;;5005542;28;20032;-82
2022/04/02 01:35:08;;;;;;;9.25;3.00;;;0.80;99.90;;;;;;5016651;28;20079;-82
2022/04/02 01:37:36;;;;;;;9.40;2.50;;;0.70;99.90;;;;;;5016894;28;20034;-82
2022/04/02 01:40:06;;;;;;;8.02;2.80;;;0.70;99.90;;;;;;5027061;28;20033;-83
2022/04/02 01:42:32;;;;;;;8.00;2.70;;;0.70;99.90;;;;;;5011472;28;20037;-81
2022/04/02 01:44:59;;;;;;;12.20;2.80;;;0.60;99.90;;;;;;4984298;28;20033;-81
2022/04/02 01:47:25;;;;;;;7.72;2.58;;;0.70;99.90;;;;;;5005210;28;20038;-81
2022/04/02 01:49:50;;;;;;;10.63;2.75;;;0.60;99.90;;;;;;5024655;28;20052;-81
2022/04/02 01:52:18;;;;;;;8.00;2.95;;;0.60;99.90;;;;;;5007193;28;20041;-80
2022/04/02 01:54:45;;;;;;;8.57;2.60;;;0.60;99.90;;;;;;5014177;28;20048;-80
2022/04/02 01:57:11;;;;;;;7.70;2.58;;;0.60;99.90;;;;;;4991048;28;20270;-81
2022/04/02 01:59:42;;;;;;;7.25;2.55;;;0.60;99.90;;;;;;5008789;28;20048;-81
2022/04/02 02:02:08;;;;;;;11.75;2.88;;;0.60;99.90;;;;;;5042727;28;20483;-81
2022/04/02 02:04:34;;;;;;;8.35;2.65;;;0.60;99.90;;;;;;4989130;28;20098;-81
2022/04/02 02:07:09;;;;;;;11.55;2.88;;;0.60;99.90;;;;;;5004212;28;20066;-81
2022/04/02 02:09:35;;;;;;;8.05;2.67;;;0.60;99.90;;;;;;5022974;28;20057;-81
2022/04/02 02:12:01;;;;;;;7.20;2.53;;;1.50;99.90;;;;;;5006116;28;20045;-81
2022/04/02 02:14:29;;;;;;;7.30;2.50;;;0.50;99.90;;;;;;5016940;28;20040;-81
2022/04/02 02:16:55;;;;;;;7.25;2.90;;;0.50;99.90;;;;;;4996882;28;20140;-81
2022/04/02 02:19:20;;;;;;;7.45;2.53;;;0.50;99.90;;;;;;5012208;28;20107;-81
2022/04/02 02:21:46;;;;;;;8.75;2.80;;;0.50;99.90;;;;;;5014137;28;20079;-81
2022/04/02 02:24:12;;;;;;;8.32;2.70;;;0.50;99.90;;;;;;5015293;28;20099;-81
2022/04/02 02:26:37;;;;;;;7.55;2.65;;;1.70;99.90;;;;;;5009324;28;20458;-82
2022/04/02 02:29:05;;;;;;;11.30;2.80;;;0.50;99.90;;;;;;5019978;28;20102;-81
2022/04/02 02:31:31;;;;;;;8.90;2.58;;;0.50;99.90;;;;;;5013167;28;20223;-81
2022/04/02 02:36:41;;;;;;;9.40;2.85;;;0.40;99.90;;;;;;5018351;28;20124;-81
2022/04/02 02:39:07;;;;;;;7.82;2.80;;;0.40;99.90;;;;;;5014829;28;20120;-81
2022/04/02 02:41:32;;;;;;;8.68;2.60;;;0.40;99.90;;;;;;5013045;28;20033;-81
2022/04/02 02:43:58;;;;;;;7.28;2.50;;;0.90;99.90;;;;;;4982248;28;20179;-82
2022/04/02 02:46:24;;;;;;;7.20;2.50;;;0.60;99.90;;;;;;5010763;28;20040;-82
2022/04/02 02:48:50;;;;;;;9.23;2.75;;;2.20;99.90;;;;;;5015599;28;20076;-82
2022/04/02 02:51:16;;;;;;;8.68;2.95;;;0.40;99.90;;;;;;4992776;28;20034;-82
2022/04/02 02:53:44;;;;;;;7.15;2.33;;;0.50;99.90;;;;;;5014449;28;20037;-81
2022/04/02 02:56:10;;;;;;;9.13;2.35;;;0.50;99.90;;;;;;4998217;28;20044;-82
2022/04/02 02:58:36;;;;;;;7.85;2.47;;;0.50;99.90;;;;;;5024993;28;20116;-80
2022/04/02 03:01:02;;;;;;;8.00;2.38;;;1.90;99.90;;;;;;5015142;28;20037;-80
2022/04/02 03:03:28;;;;;;;7.93;2.70;;;0.50;99.90;;;;;;5006785;28;20052;-82
2022/04/02 03:05:54;;;;;;;8.07;2.60;;;2.20;99.90;;;;;;5012064;28;20076;-82
2022/04/02 03:08:20;;;;;;;9.07;2.42;;;0.50;99.90;;;;;;4998584;28;20359;-81
2022/04/02 03:10:46;;;;;;;7.05;2.28;;;2.10;99.90;;;;;;4997439;28;20041;-81
2022/04/02 03:13:11;;;;;;;9.00;2.83;;;0.50;99.90;;;;;;5013906;28;20045;-81
2022/04/02 03:15:38;;;;;;;9.75;2.40;;;0.60;99.90;;;;;;4999286;28;20041;-81
2022/04/02 03:18:08;;;;;;;6.85;2.30;;;0.60;99.90;;;;;;5013241;28;20458;-81
2022/04/02 03:20:35;;;;;;;7.82;2.30;;;0.60;99.90;;;;;;5031023;28;20037;-81
2022/04/02 03:23:02;;;;;;;12.02;2.40;;;0.60;99.90;;;;;;4998213;28;20406;-81
2022/04/02 03:25:28;;;;;;;8.43;2.35;;;2.10;99.90;;;;;;4998787;28;20029;-81
2022/04/02 03:27:55;;;;;;;8.55;2.40;;;1.20;99.90;;;;;;5009911;28;20028;-81
2022/04/02 03:30:23;;;;;;;7.75;2.53;;;1.90;99.90;;;;;;5013458;28;20048;-81
2022/04/02 03:32:50;;;;;;;8.70;2.58;;;0.70;99.90;;;;;;5015008;28;20132;-81
2022/04/02 03:35:18;;;;;;;8.77;2.30;;;1.00;99.90;;;;;;5014734;28;20051;-81
2022/04/02 03:37:46;;;;;;;7.63;2.65;;;0.70;99.90;;;;;;5025695;28;20521;-81
2022/04/02 03:40:14;;;;;;;8.50;2.50;;;2.20;99.90;;;;;;5029260;28;20033;-81
2022/04/02 03:42:42;;;;;;;9.13;2.60;;;2.20;99.90;;;;;;5026833;28;20045;-81
2022/04/02 03:45:09;;;;;;;9.25;2.53;;;2.00;99.90;;;;;;4990180;28;20036;-81
2022/04/02 03:47:35;;;;;;;9.38;2.65;;;0.90;99.90;;;;;;5000373;28;20201;-81
2022/04/02 03:50:01;;;;;;;8.20;2.30;;;0.70;99.90;;;;;;5009187;28;20524;-81
2022/04/02 03:52:27;;;;;;;7.65;2.47;;;0.80;99.90;;;;;;5030453;28;20044;-81
2022/04/02 03:54:53;;;;;;;7.18;2.60;;;1.00;99.90;;;;;;5001489;28;20110;-81
2022/04/02 03:57:19;;;;;;;10.68;2.90;;;1.50;99.90;;;;;;5013818;28;20494;-81
2022/04/02 03:59:46;;;;;;;9.82;2.50;;;0.80;99.90;;;;;;4994713;28;20097;-81
2022/04/02 04:02:12;;;;;;;7.32;2.20;;;0.80;99.90;;;;;;5014684;28;20033;-81
2022/04/02 04:04:39;;;;;;;7.72;2.38;;;1.90;99.90;;;;;;4989704;28;20041;-82
2022/04/02 04:07:06;;;;;;;6.47;2.13;;;0.80;99.90;;;;;;5006207;28;20091;-81
2022/04/02 04:09:32;;;;;;;8.32;2.53;;;0.80;99.90;;;;;;4996182;28;20045;-82
2022/04/02 04:11:58;;;;;;;7.95;2.45;;;0.80;99.90;;;;;;5014480;28;20135;-81
2022/04/02 04:14:25;;;;;;;9.45;2.45;;;1.40;99.90;;;;;;5023469;28;20221;-81
2022/04/02 04:16:52;;;;;;;8.48;2.30;;;0.80;99.90;;;;;;5030466;28;20052;-81
2022/04/02 04:19:18;;;;;;;7.45;2.50;;;0.80;99.90;;;;;;4994563;28;20549;-81
2022/04/02 04:21:45;;;;;;;10.60;2.90;;;0.80;99.90;;;;;;5013079;28;20037;-81
2022/04/02 04:24:10;;;;;;;9.35;2.70;;;0.90;99.90;;;;;;5027457;28;20415;-81
2022/04/02 04:26:37;;;;;;;10.10;2.78;;;2.30;99.90;;;;;;4998155;28;20063;-82
2022/04/02 04:29:04;;;;;;;7.38;2.60;;;1.00;99.90;;;;;;5012061;28;20503;-81
2022/04/02 04:31:29;;;;;;;8.65;2.53;;;1.00;99.90;;;;;;4988918;28;20048;-81
2022/04/02 04:33:55;;;;;;;9.05;2.70;;;2.40;99.90;;;;;;4979880;28;20056;-81
2022/04/02 04:36:24;;;;;;;8.40;2.63;;;1.10;99.90;;;;;;5006588;28;20063;-81
2022/04/02 04:38:51;;;;;;;9.27;2.80;;;2.30;99.90;;;;;;5017803;28;20052;-81
2022/04/02 04:41:17;;;;;;;8.85;2.80;;;1.20;99.90;;;;;;5022586;28;20059;-81
2022/04/02 04:43:47;;;;;;;9.05;2.78;;;1.20;99.90;;;;;;5014099;28;20060;-82
2022/04/02 04:46:15;;;;;;;7.28;2.60;;;1.30;99.90;;;;;;5016459;28;20431;-81
2022/04/02 04:48:41;;;;;;;8.43;2.80;;;1.30;99.90;;;;;;5033487;28;20091;-81
2022/04/02 04:51:08;;;;;;;9.20;2.75;;;1.70;99.90;;;;;;5019380;28;20036;-81
2022/04/02 04:53:34;;;;;;;9.13;2.78;;;2.00;99.90;;;;;;5021527;28;20052;-81
2022/04/02 04:56:00;;;;;;;8.77;2.70;;;1.40;99.90;;;;;;5008500;28;20128;-81
2022/04/02 04:58:27;;;;;;;8.63;2.90;;;1.40;99.90;;;;;;5001495;28;20128;-81
2022/04/02 05:00:57;;;;;;;8.77;2.70;;;1.40;99.90;;;;;;5010866;28;20048;-81
2022/04/02 05:03:24;;;;;;;8.15;2.65;;;1.40;99.90;;;;;;5009366;28;20073;-81
2022/04/02 05:05:52;;;;;;;9.77;2.80;;;1.40;99.90;;;;;;4998554;28;20108;-82
2022/04/02 05:08:18;;;;;;;7.25;2.67;;;2.80;99.90;;;;;;5017113;28;20037;-82
2022/04/02 05:10:44;;;;;;;10.73;2.83;;;1.40;99.90;;;;;;5016278;28;20218;-82
2022/04/02 05:13:14;;;;;;;9.82;3.10;;;1.40;99.90;;;;;;4993233;28;20458;-82
2022/04/02 05:15:44;;;;;;;9.15;2.92;;;1.30;99.90;;;;;;5000945;28;20474;-81
2022/04/02 05:18:14;;;;;;;8.40;2.65;;;1.30;99.90;;;;;;5014404;28;20075;-81
2022/04/02 05:20:40;;;;;;;9.55;2.90;;;2.60;99.90;;;;;;5014445;28;20048;-81
2022/04/02 05:23:06;;;;;;;9.70;2.90;;;1.20;99.90;;;;;;5016098;28;20529;-81
2022/04/02 05:25:36;;;;;;;9.77;2.95;;;1.20;99.90;;;;;;5006509;28;20543;-82
2022/04/02 05:28:04;;;;;;;7.80;2.80;;;1.20;99.90;;;;;;4999027;28;20067;-82
2022/04/02 05:30:34;;;;;;;8.00;2.75;;;1.20;99.90;;;;;;5001085;28;20191;-81
2022/04/02 05:33:00;;;;;;;10.20;3.35;;;1.20;99.90;;;;;;4999004;28;20044;-81
2022/04/02 05:35:26;;;;;;;9.75;2.95;;;1.20;99.90;;;;;;5011571;28;20041;-82
2022/04/02 05:37:51;;;;;;;9.48;3.10;;;1.20;99.90;;;;;;5014209;28;20033;-82
2022/04/02 05:40:17;;;;;;;9.45;2.78;;;1.20;99.90;;;;;;4996407;28;20124;-81
2022/04/02 05:42:45;;;;;;;11.13;2.90;;;1.20;99.90;;;;;;4999471;28;20037;-82
2022/04/02 05:45:12;;;;;;;8.85;2.80;;;1.90;99.90;;;;;;5001340;28;20038;-81
2022/04/02 05:47:42;;;;;;;8.85;3.03;;;1.30;99.90;;;;;;4999886;28;20043;-81
2022/04/02 05:50:10;;;;;;;10.55;3.35;;;3.00;99.90;;;;;;5023728;28;20551;-81
2022/04/02 05:52:37;;;;;;;8.52;2.83;;;1.60;99.90;;;;;;5016517;28;20425;-82
2022/04/02 05:55:03;;;;;;;11.25;3.28;;;2.60;99.90;;;;;;4995635;28;20049;-81
2022/04/02 05:57:29;;;;;;;8.38;2.75;;;1.60;99.90;;;;;;5000230;28;20133;-81
2022/04/02 05:59:55;;;;;;;8.75;2.95;;;1.70;99.90;;;;;;4998771;28;20120;-82
2022/04/02 06:02:21;;;;;;;8.68;2.80;;;1.80;99.90;;;;;;4983051;28;20121;-82
2022/04/02 06:04:47;;;;;;;10.27;2.90;;;1.90;99.90;;;;;;5009916;28;20124;-81
2022/04/02 06:07:12;;;;;;;7.78;2.70;;;2.70;99.90;;;;;;5011484;28;20405;-82
2022/04/02 06:09:38;;;;;;;7.93;2.50;;;2.10;99.90;;;;;;4992597;28;20122;-82
2022/04/02 06:12:04;;;;;;;7.60;2.47;;;2.30;99.90;;;;;;5021879;28;20041;-82
2022/04/02 06:14:30;;;;;;;9.48;2.40;;;2.40;99.90;;;;;;4999382;28;20197;-82
2022/04/02 06:16:55;;;;;;;7.55;2.38;;;2.50;99.90;;;;;;5033723;28;20041;-82
2022/04/02 06:19:21;;;;;;;7.65;2.17;;;2.70;99.90;;;;;;5008901;28;20049;-82
2022/04/02 06:21:47;;;;;;;8.57;2.30;;;2.80;99.90;;;;;;5016396;28;20090;-82
2022/04/02 06:24:12;;;;;;;6.78;2.38;;;3.00;99.90;;;;;;5000210;28;20041;-82
2022/04/02 06:26:38;;;;;;;6.88;2.20;;;3.10;99.90;;;;;;4993628;28;20033;-82
2022/04/02 06:29:04;;;;;;;7.72;2.15;;;3.30;99.90;;;;;;5012461;28;20040;-82
2022/04/02 06:31:30;;;;;;;7.45;2.60;;;5.20;99.90;;;;;;5018517;28;20037;-82
2022/04/02 06:33:55;;;;;;;7.20;2.60;;;4.90;99.90;;;;;;4981169;28;20095;-82
2022/04/02 06:36:21;;;;;;;8.60;2.50;;;3.60;99.90;;;;;;4997097;28;20284;-82
2022/04/02 06:38:47;;;;;;;7.35;2.38;;;5.00;99.90;;;;;;5029374;28;20112;-81
2022/04/02 06:41:12;;;;;;;8.20;2.33;;;4.70;99.90;;;;;;4979959;28;20037;-81
2022/04/02 06:43:38;;;;;;;7.00;2.45;;;4.70;99.90;;;;;;4982981;28;20121;-81
2022/04/02 06:46:04;;;;;;;7.30;2.10;;;3.80;99.90;;;;;;5000161;28;20116;-82
2022/04/02 06:48:30;;;;;;;8.57;2.30;;;5.30;99.90;;;;;;5007790;28;20501;-82
2022/04/02 06:50:56;;;;;;;7.05;2.25;;;3.70;99.90;;;;;;5004030;28;20037;-82
2022/04/02 06:53:21;;;;;;;6.47;2.00;;;5.10;99.90;;;;;;5015007;28;20533;-81
2022/04/02 06:55:47;;;;;;;7.53;2.20;;;3.70;99.90;;;;;;4998722;28;20043;-82
2022/04/02 06:58:34;;;;;;;6.45;2.10;;;3.70;99.90;;;;;;5015947;28;20505;-81
2022/04/02 07:01:00;;;;;;;6.78;2.30;;;5.00;99.90;;;;;;5026588;28;20038;-81
2022/04/02 07:03:25;;;;;;;9.00;2.33;;;3.70;99.90;;;;;;4982811;28;20037;-82
2022/04/02 07:05:51;;;;;;;6.95;2.20;;;4.90;99.90;;;;;;4997179;28;20033;-81
2022/04/02 07:08:18;;;;;;;7.80;2.17;;;3.70;99.90;;;;;;5015259;28;20033;-82
2022/04/02 07:10:43;;;;;;;6.18;2.25;;;3.50;99.90;;;;;;5005805;28;20078;-82
2022/04/02 07:13:09;;;;;;;5.80;1.77;;;3.50;99.90;;;;;;4995653;28;20045;-81
2022/04/02 07:15:35;;;;;;;5.85;2.00;;;3.40;99.90;;;;;;4998562;28;20037;-81
2022/04/02 07:18:11;;;;;;;6.75;1.98;;;3.40;99.90;;;;;;4994641;28;20048;-82
2022/04/02 07:20:38;;;;;;;7.15;1.95;;;3.90;99.90;;;;;;5010974;28;20048;-81
2022/04/02 07:23:07;;;;;;;5.72;2.05;;;5.10;99.90;;;;;;5020945;28;20060;-82
2022/04/02 07:25:39;;;;;;;7.18;2.20;;;3.20;99.90;;;;;;5004611;28;20028;-81
2022/04/02 07:28:07;;;;;;;6.68;2.10;;;3.20;99.90;;;;;;5043115;28;20070;-82
2022/04/02 07:30:36;;;;;;;9.23;2.30;;;3.10;99.90;;;;;;4995089;28;21615;-81
2022/04/02 07:33:02;;;;;;;7.47;2.08;;;3.10;99.90;;;;;;5026076;28;20167;-82
2022/04/02 07:35:35;;;;;;;6.47;2.08;;;4.30;99.90;;;;;;4994212;28;20123;-81
2022/04/02 07:38:16;;;;;;;7.60;2.08;;;3.10;99.90;;;;;;5007913;28;20041;-81
2022/04/02 07:41:04;;;;;;;6.72;2.10;;;4.70;99.90;;;;;;5010062;28;20572;-82
2022/04/02 07:43:29;;;;;;;7.15;2.17;;;3.20;99.90;;;;;;5010632;28;20090;-82
2022/04/02 07:46:10;;;;;;;5.70;2.15;;;3.80;99.90;;;;;;5030125;28;20045;-81
2022/04/02 07:48:39;;;;;;;6.53;2.00;;;3.30;99.90;;;;;;5006796;28;20477;-83
2022/04/02 07:51:11;;;;;;;7.28;2.08;;;3.40;99.90;;;;;;5007972;28;20418;-83
2022/04/02 07:53:44;;;;;;;6.20;1.90;;;3.40;99.90;;;;;;5025649;28;20131;-83
2022/04/02 07:56:14;;;;;;;7.55;1.92;;;3.50;99.90;;;;;;5005660;28;20037;-83
2022/04/02 07:58:46;;;;;;;6.93;2.25;;;3.50;99.90;;;;;;5028327;28;20049;-83
2022/04/02 08:01:14;;;;;;;7.72;2.22;;;4.60;99.90;;;;;;5025432;28;20032;-83
2022/04/02 08:03:44;;;;;;;7.18;2.10;;;5.20;99.90;;;;;;5012139;28;20086;-83
2022/04/02 08:06:13;;;;;;;5.50;1.90;;;5.30;99.90;;;;;;5044403;28;20029;-83
2022/04/02 08:08:40;;;;;;;7.95;2.25;;;3.80;99.90;;;;;;5011658;28;20044;-84
2022/04/02 08:11:11;;;;;;;7.70;2.20;;;5.20;99.90;;;;;;5008832;28;20049;-84
2022/04/02 08:13:40;;;;;;;7.05;2.10;;;4.00;99.90;;;;;;4993220;28;20131;-83
2022/04/02 08:16:06;;;;;;;7.45;2.20;;;4.20;99.90;;;;;;4995492;28;20037;-83
2022/04/02 08:18:32;;;;;;;7.82;2.30;;;4.50;99.90;;;;;;5009405;28;20050;-83
2022/04/02 08:20:58;;;;;;;9.63;2.20;;;5.70;99.90;;;;;;4994746;28;20056;-83
2022/04/02 08:23:24;;;;;;;7.18;1.85;;;5.30;99.90;;;;;;4992346;28;20037;-82
2022/04/02 08:26:18;;;;;;;6.13;1.70;;;5.30;99.90;;;;;;5006628;28;20040;-83
2022/04/02 08:29:04;;;;;;;5.43;1.80;;;4.80;99.90;;;;;;5015414;28;20140;-83
2022/04/02 08:31:56;;;;;;;7.07;1.90;;;4.80;99.90;;;;;;5030898;28;20445;-86
2022/04/02 08:34:40;;;;;;;6.18;2.00;;;5.00;99.90;;;;;;5010211;28;20401;-82
2022/04/02 08:37:23;;;;;;;7.47;2.10;;;5.20;99.90;;;;;;5028145;28;20076;-83
2022/04/02 08:40:00;;;;;;;8.45;2.33;;;5.20;99.90;;;;;;5021871;28;20048;-82
2022/04/02 08:43:13;;;;;;;6.30;1.90;;;5.30;99.90;;;;;;5007548;28;20048;-83
2022/04/02 08:46:08;;;;;;;7.30;1.90;;;5.40;99.90;;;;;;4961825;28;20046;-83
2022/04/02 08:48:56;;;;;;;7.07;1.92;;;5.40;99.90;;;;;;5023014;28;20033;-82
2022/04/02 08:51:34;;;;;;;6.38;1.95;;;5.50;99.90;;;;;;5025668;28;20076;-82
2022/04/02 08:54:06;;;;;;;6.72;2.00;;;5.40;99.90;;;;;;5027508;28;20060;-83
2022/04/02 08:56:37;;;;;;;5.63;1.73;;;5.30;99.90;;;;;;5026776;28;20083;-83
2022/04/02 08:59:08;;;;;;;4.97;1.70;;;5.40;99.90;;;;;;5023138;28;20049;-83
2022/04/02 09:02:09;;;;;;;6.93;1.70;;;5.40;99.90;;;;;;5012320;28;20033;-82
2022/04/02 09:05:01;;;;;;;6.10;1.67;;;5.50;99.90;;;;;;5024293;28;20037;-83
2022/04/02 09:07:54;;;;;;;5.25;1.90;;;5.50;99.90;;;;;;5009986;28;20033;-84
2022/04/02 09:10:40;;;;;;;5.28;1.65;;;5.30;99.90;;;;;;5024953;28;20152;-84
2022/04/02 09:13:30;;;;;;;5.07;1.67;;;5.20;99.90;;;;;;5030722;28;20040;-83
2022/04/02 09:15:58;;;;;;;5.85;2.00;;;5.20;99.90;;;;;;5013123;28;20037;-83
2022/04/02 09:18:30;;;;;;;7.43;1.95;;;5.20;99.90;;;;;;5028784;28;20036;-84
2022/04/02 09:20:57;;;;;;;8.05;2.00;;;5.40;99.90;;;;;;5016447;28;20102;-83
2022/04/02 09:23:48;;;;;;;9.18;2.00;;;6.60;99.90;;;;;;4998436;28;20126;-83
2022/04/02 09:26:19;;;;;;;4.65;1.67;;;5.50;99.90;;;;;;5015206;28;20034;-83
2022/04/02 09:29:35;;;;;;;5.82;1.88;;;5.60;99.90;;;;;;5012450;28;20398;-83
2022/04/02 09:32:09;;;;;;;7.88;1.98;;;5.50;99.90;;;;;;4958816;28;20117;-83
2022/04/02 09:35:09;;;;;;;6.20;1.80;;;5.50;99.90;;;;;;5024114;28;20057;-83
2022/04/02 09:37:40;;;;;;;6.85;1.83;;;5.40;99.90;;;;;;5030985;28;20041;-83
2022/04/02 09:40:09;;;;;;;5.28;1.77;;;5.40;99.90;;;;;;5030077;28;20037;-83
2022/04/02 09:42:45;;;;;;;6.18;1.80;;;6.60;99.90;;;;;;5012251;28;20040;-83
2022/04/02 09:45:16;;;;;;;5.22;2.05;;;5.20;99.90;;;;;;5033114;28;20167;-83
2022/04/02 09:47:51;;;;;;;8.57;2.20;;;5.10;99.90;;;;;;5016708;28;20516;-82
2022/04/02 09:50:19;;;;;;;5.82;2.03;;;5.00;99.90;;;;;;5030622;28;20510;-83
2022/04/02 09:53:10;;;;;;;6.88;1.90;;;6.20;99.90;;;;;;5028773;28;20045;-83
2022/04/02 09:56:01;;;;;;;8.25;2.20;;;5.00;99.90;;;;;;5015296;28;20033;-83
2022/04/02 09:58:48;;;;;;;8.55;2.22;;;4.50;99.90;;;;;;5014201;28;20041;-83
2022/04/02 10:01:37;;;;;;;5.70;1.73;;;4.90;99.90;;;;;;5014201;28;20060;-83
2022/04/02 10:04:14;;;;;;;7.07;2.00;;;6.40;99.90;;;;;;5029616;28;20568;-82
2022/04/02 10:06:42;;;;;;;6.90;2.10;;;5.00;99.90;;;;;;5031314;28;20065;-83
2022/04/02 10:09:13;;;;;;;7.72;1.85;;;5.90;99.90;;;;;;5013480;28;20382;-82
2022/04/02 10:11:53;;;;;;;7.38;1.80;;;5.00;99.90;;;;;;5027150;28;20096;-82
2022/04/02 10:14:24;;;;;;;8.32;2.08;;;5.10;99.90;;;;;;5029460;28;20056;-83
2022/04/02 10:16:55;;;;;;;7.20;1.90;;;5.10;99.90;;;;;;5012069;28;20044;-83
2022/04/02 10:19:36;;;;;;;5.05;1.80;;;5.50;99.90;;;;;;5031157;28;20472;-82
2022/04/02 10:22:12;;;;;;;8.98;2.10;;;5.20;99.90;;;;;;5013986;28;20033;-82
2022/04/02 10:24:40;;;;;;;10.32;2.00;;;5.50;99.90;;;;;;5011758;28;20075;-83
2022/04/02 10:27:09;;;;;;;8.15;1.95;;;5.30;99.90;;;;;;5013947;28;20401;-82
2022/04/02 10:30:09;;;;;;;9.38;1.92;;;5.60;99.90;;;;;;5044796;28;20255;-83
2022/04/02 10:33:26;;;;;;;7.10;2.22;;;5.40;99.90;;;;;;5012475;28;20059;-82
2022/04/02 10:35:46;;;;;;;6.65;1.95;;;5.40;99.90;;;;;;5026550;28;20119;-83
2022/04/02 10:38:33;;;;;;;5.68;1.83;;;5.40;99.90;;;;;;4994111;28;20449;-82
2022/04/02 10:41:04;;;;;;;4.40;1.73;;;5.40;99.90;;;;;;5030708;28;20048;-83
2022/04/02 10:43:49;;;;;;;9.38;2.10;;;5.40;99.90;;;;;;5029659;28;20521;-83
2022/04/02 10:46:19;;;;;;;5.78;1.73;;;5.40;99.90;;;;;;5009302;28;20518;-83
2022/04/02 10:49:00;;;;;;;6.63;2.00;;;5.70;99.90;;;;;;5022539;28;20171;-83
2022/04/02 10:51:31;;;;;;;6.95;2.10;;;5.50;99.90;;;;;;5024655;28;20040;-83
2022/04/02 10:54:01;;;;;;;7.22;1.80;;;5.50;99.90;;;;;;5020172;28;20393;-82
2022/04/02 10:56:55;;;;;;;9.63;2.28;;;5.80;99.90;;;;;;5012218;28;20513;-82
2022/04/02 10:59:21;;;;;;;6.07;2.00;;;6.40;99.90;;;;;;5010649;28;20052;-83
2022/04/02 11:01:53;;;;;;;6.32;1.92;;;6.50;99.90;;;;;;4997964;28;20113;-83
2022/04/02 11:04:53;;;;;;;7.32;2.22;;;6.20;99.90;;;;;;4997741;28;20421;-84
2022/04/02 11:07:37;;;;;;;7.18;2.08;;;6.10;99.90;;;;;;5011135;28;20033;-83
2022/04/02 11:10:04;;;;;;;6.60;2.00;;;6.10;99.90;;;;;;5011023;28;20486;-84
2022/04/02 11:12:45;;;;;;;8.68;2.20;;;6.00;99.90;;;;;;5013105;28;20132;-83
2022/04/02 11:15:11;;;;;;;9.13;2.05;;;7.20;99.90;;;;;;5009107;28;20090;-83
2022/04/02 11:17:41;;;;;;;8.70;2.40;;;6.00;99.90;;;;;;5022847;28;20045;-82
2022/04/02 11:20:10;;;;;;;7.40;2.10;;;5.90;99.90;;;;;;5024339;28;20044;-84
2022/04/02 11:22:59;;;;;;;5.63;1.90;;;6.60;99.90;;;;;;5025647;28;21687;-84
2022/04/02 11:25:31;;;;;;;7.90;2.08;;;5.80;99.90;;;;;;5024610;28;20033;-84
2022/04/02 11:27:58;;;;;;;7.70;2.30;;;5.80;99.90;;;;;;5008169;28;20044;-83
2022/04/02 11:30:33;;;;;;;6.93;1.90;;;7.00;99.90;;;;;;5021420;28;20067;-81
2022/04/02 11:33:06;;;;;;;8.65;2.00;;;5.50;99.90;;;;;;5010608;28;20037;-84
2022/04/02 11:35:42;;;;;;;8.48;2.13;;;5.50;99.90;;;;;;5013224;28;20398;-83
2022/04/02 11:38:08;;;;;;;6.82;2.00;;;5.40;99.90;;;;;;5009702;28;20079;-84
2022/04/02 11:40:38;;;;;;;5.88;1.90;;;5.30;99.90;;;;;;5024389;28;20127;-84
2022/04/02 11:43:04;;;;;;;6.18;2.17;;;5.30;99.90;;;;;;5009028;28;20147;-84
2022/04/02 11:45:30;;;;;;;5.97;1.90;;;5.30;99.90;;;;;;5020414;28;20048;-83
2022/04/02 11:48:14;;;;;;;5.00;1.60;;;5.40;99.90;;;;;;5007811;28;20033;-83
2022/04/02 11:50:43;;;;;;;7.47;2.08;;;5.50;99.90;;;;;;5022139;28;20128;-83
2022/04/02 11:53:10;;;;;;;5.55;1.90;;;6.80;99.90;;;;;;5019940;28;20041;-83
2022/04/02 11:55:39;;;;;;;5.22;1.60;;;6.20;99.90;;;;;;5026963;28;20052;-84
2022/04/02 11:58:14;;;;;;;6.55;2.00;;;6.60;99.90;;;;;;5012080;28;20044;-83
2022/04/02 12:00:42;;;;;;;3.95;1.50;;;6.90;99.90;;;;;;5002788;28;20041;-84
2022/04/02 12:03:23;;;;;;;4.32;1.60;;;6.30;99.90;;;;;;5008361;28;20422;-83
2022/04/02 12:05:50;;;;;;;5.35;1.65;;;6.50;99.90;;;;;;5005960;28;20494;-82
2022/04/02 12:08:29;;;;;;;5.25;1.70;;;6.60;99.90;;;;;;5012304;28;20037;-83
2022/04/02 12:10:56;;;;;;;4.55;1.40;;;6.30;99.70;;;;;;5024014;28;20100;-83
2022/04/02 12:13:22;;;;;;;4.22;1.60;;;7.00;99.90;;;;;;5028568;28;20116;-83
2022/04/02 12:16:13;;;;;;;3.90;1.50;;;7.30;99.90;;;;;;4999474;28;20198;-83
2022/04/02 12:18:54;;;;;;;6.88;1.60;;;7.60;99.90;;;;;;5011232;28;20041;-83
2022/04/02 12:21:35;;;;;;;5.30;1.60;;;7.80;98.20;;;;;;5030717;28;20033;-84
2022/04/02 12:24:03;;;;;;;3.92;1.50;;;7.20;99.90;;;;;;5008385;28;20033;-83
2022/04/02 12:26:30;;;;;;;6.00;1.75;;;7.30;99.90;;;;;;5021340;28;20109;-84
2022/04/02 12:28:58;;;;;;;11.40;1.80;;;7.10;99.90;;;;;;5009961;28;20052;-83
2022/04/02 12:31:27;;;;;;;5.78;1.80;;;6.90;99.90;;;;;;5008376;28;20232;-83
2022/04/02 12:33:54;;;;;;;8.75;1.90;;;6.60;99.90;;;;;;4992843;28;20043;-83
2022/04/02 12:36:35;;;;;;;7.10;2.00;;;6.40;99.90;;;;;;5010474;28;20036;-83
2022/04/02 12:39:03;;;;;;;4.65;1.55;;;6.20;99.90;;;;;;5011068;28;20067;-84
2022/04/02 12:41:29;;;;;;;5.97;1.90;;;6.10;99.90;;;;;;5030617;28;20465;-84
2022/04/02 12:44:00;;;;;;;5.43;1.75;;;6.10;99.90;;;;;;4980478;28;20033;-83
2022/04/02 12:46:27;;;;;;;6.32;2.03;;;6.00;99.90;;;;;;5011486;28;20444;-83
2022/04/02 12:48:54;;;;;;;5.75;1.85;;;6.20;99.90;;;;;;5032208;28;20025;-84
2022/04/02 12:51:21;;;;;;;6.47;2.00;;;6.80;99.90;;;;;;4998423;28;20039;-84
2022/04/02 12:53:48;;;;;;;7.53;1.90;;;6.40;99.90;;;;;;5011564;28;20056;-84
2022/04/02 12:56:25;;;;;;;4.25;1.63;;;7.00;99.90;;;;;;5016994;28;20406;-83
2022/04/02 12:58:52;;;;;;;6.03;1.60;;;7.40;94.80;;;;;;5014067;28;20079;-84
2022/04/02 13:01:31;;;;;;;6.18;1.67;;;6.20;99.90;;;;;;5023845;28;20044;-84
2022/04/02 13:04:11;;;;;;;5.72;1.80;;;6.20;99.90;;;;;;5009975;28;20032;-84
2022/04/02 13:06:47;;;;;;;5.15;1.85;;;7.50;99.90;;;;;;5031510;28;20493;-84
2022/04/02 13:09:20;;;;;;;6.28;2.00;;;6.50;99.90;;;;;;5031213;28;20505;-84
2022/04/02 13:12:00;;;;;;;5.38;1.70;;;6.40;99.90;;;;;;4999077;28;20049;-83
2022/04/02 13:14:38;;;;;;;5.88;1.70;;;6.60;96.40;;;;;;5029904;28;20045;-83
2022/04/02 13:17:11;;;;;;;6.47;1.70;;;6.80;96.20;;;;;;5031844;28;20094;-84